sensor_id;sensor_type;location;lat;lon;timestamp;pressure;altitude;pressure_sealevel;temperature;humidity
29239;BME280;16267;48.194;11.546;2023-07-29T00:00:56;95693.13;;;20.13;86.00
29239;BME280;16267;48.194;11.546;2023-07-29T00:03:22;95692.38;;;20.13;85.39
29239;BME280;16267;48.194;11.546;2023-07-29T00:05:49;95685.16;;;20.10;85.55
29239;BME280;16267;48.194;11.546;2023-07-29T00:08:14;95688.31;;;20.08;85.45
29239;BME280;16267;48.194;11.546;2023-07-29T00:10:40;95686.84;;;20.07;85.10
29239;BME280;16267;48.194;11.546;2023-07-29T00:13:08;95691.25;;;20.04;85.04
29239;BME280;16267;48.194;11.546;2023-07-29T00:15:34;95679.78;;;20.00;85.13
29239;BME280;16267;48.194;11.546;2023-07-29T00:18:00;95686.91;;;19.98;85.74
29239;BME280;16267;48.194;11.546;2023-07-29T00:20:26;95688.13;;;19.97;85.72
29239;BME280;16267;48.194;11.546;2023-07-29T00:22:51;95693.28;;;19.95;84.98
29239;BME280;16267;48.194;11.546;2023-07-29T00:25:21;95687.59;;;19.93;85.26
29239;BME280;16267;48.194;11.546;2023-07-29T00:27:47;95680.63;;;19.92;84.98
29239;BME280;16267;48.194;11.546;2023-07-29T00:30:13;95687.28;;;19.91;84.77
29239;BME280;16267;48.194;11.546;2023-07-29T00:32:39;95674.63;;;19.88;85.04
29239;BME280;16267;48.194;11.546;2023-07-29T00:35:05;95666.91;;;19.86;85.15
29239;BME280;16267;48.194;11.546;2023-07-29T00:37:31;95670.84;;;19.85;85.02
29239;BME280;16267;48.194;11.546;2023-07-29T00:39:57;95673.28;;;19.83;84.85
29239;BME280;16267;48.194;11.546;2023-07-29T00:42:24;95667.56;;;19.81;85.18
29239;BME280;16267;48.194;11.546;2023-07-29T00:44:50;95671.22;;;19.78;85.66
29239;BME280;16267;48.194;11.546;2023-07-29T00:47:16;95670.47;;;19.77;85.08
29239;BME280;16267;48.194;11.546;2023-07-29T00:49:45;95681.81;;;19.76;84.85
29239;BME280;16267;48.194;11.546;2023-07-29T00:52:12;95674.88;;;19.75;85.46
29239;BME280;16267;48.194;11.546;2023-07-29T00:54:42;95671.88;;;19.73;85.26
29239;BME280;16267;48.194;11.546;2023-07-29T00:57:09;95677.03;;;19.71;85.63
29239;BME280;16267;48.194;11.546;2023-07-29T00:59:36;95664.38;;;19.68;86.46
29239;BME280;16267;48.194;11.546;2023-07-29T01:02:02;95673.00;;;19.66;86.06
29239;BME280;16267;48.194;11.546;2023-07-29T01:04:28;95667.22;;;19.64;86.49
29239;BME280;16267;48.194;11.546;2023-07-29T01:07:07;95668.16;;;19.61;86.60
29239;BME280;16267;48.194;11.546;2023-07-29T01:10:18;95669.09;;;19.58;86.56
29239;BME280;16267;48.194;11.546;2023-07-29T01:13:00;95668.34;;;19.57;86.14
29239;BME280;16267;48.194;11.546;2023-07-29T01:15:33;95657.91;;;19.56;86.18
29239;BME280;16267;48.194;11.546;2023-07-29T01:18:08;95661.13;;;19.54;86.06
29239;BME280;16267;48.194;11.546;2023-07-29T01:20:38;95659.59;;;19.53;86.02
29239;BME280;16267;48.194;11.546;2023-07-29T01:23:05;95654.66;;;19.52;85.65
29239;BME280;16267;48.194;11.546;2023-07-29T01:25:31;95650.41;;;19.51;85.61
29239;BME280;16267;48.194;11.546;2023-07-29T01:27:57;95652.84;;;19.49;85.71
29239;BME280;16267;48.194;11.546;2023-07-29T01:30:31;95652.28;;;19.45;86.02
29239;BME280;16267;48.194;11.546;2023-07-29T01:33:24;95659.41;;;19.42;86.29
29239;BME280;16267;48.194;11.546;2023-07-29T01:35:58;95658.34;;;19.39;86.64
29239;BME280;16267;48.194;11.546;2023-07-29T01:38:36;95651.13;;;19.36;86.80
29239;BME280;16267;48.194;11.546;2023-07-29T01:41:06;95648.16;;;19.34;86.67
29239;BME280;16267;48.194;11.546;2023-07-29T01:43:33;95656.75;;;19.33;86.56
29239;BME280;16267;48.194;11.546;2023-07-29T01:46:00;95655.25;;;19.32;86.05
29239;BME280;16267;48.194;11.546;2023-07-29T01:48:26;95653.00;;;19.30;85.85
29239;BME280;16267;48.194;11.546;2023-07-29T01:50:54;95646.06;;;19.29;85.69
29239;BME280;16267;48.194;11.546;2023-07-29T01:53:20;95641.06;;;19.28;85.73
29239;BME280;16267;48.194;11.546;2023-07-29T01:55:45;95649.72;;;19.26;85.50
29239;BME280;16267;48.194;11.546;2023-07-29T01:58:11;95643.50;;;19.26;85.42
29239;BME280;16267;48.194;11.546;2023-07-29T02:00:38;95645.19;;;19.23;85.44
29239;BME280;16267;48.194;11.546;2023-07-29T02:03:03;95645.19;;;19.23;85.19
29239;BME280;16267;48.194;11.546;2023-07-29T02:05:29;95635.53;;;19.22;85.57
29239;BME280;16267;48.194;11.546;2023-07-29T02:07:55;95642.19;;;19.21;85.28
29239;BME280;16267;48.194;11.546;2023-07-29T02:10:20;95637.22;;;19.20;85.27
29239;BME280;16267;48.194;11.546;2023-07-29T02:12:46;95632.69;;;19.16;85.43
29239;BME280;16267;48.194;11.546;2023-07-29T02:15:12;95632.41;;;19.14;85.94
29239;BME280;16267;48.194;11.546;2023-07-29T02:17:37;95627.91;;;19.11;86.30
29239;BME280;16267;48.194;11.546;2023-07-29T02:20:04;95630.34;;;19.09;86.21
29239;BME280;16267;48.194;11.546;2023-07-29T02:22:37;95628.06;;;19.08;85.96
29239;BME280;16267;48.194;11.546;2023-07-29T02:25:03;95619.63;;;19.06;85.48
29239;BME280;16267;48.194;11.546;2023-07-29T02:27:29;95635.19;;;19.05;85.64
29239;BME280;16267;48.194;11.546;2023-07-29T02:29:55;95634.16;;;19.03;85.48
29239;BME280;16267;48.194;11.546;2023-07-29T02:32:21;95638.84;;;19.02;85.71
29239;BME280;16267;48.194;11.546;2023-07-29T02:34:47;95631.63;;;18.99;85.67
29239;BME280;16267;48.194;11.546;2023-07-29T02:37:12;95643.44;;;18.96;86.00
29239;BME280;16267;48.194;11.546;2023-07-29T02:39:38;95632.25;;;18.94;86.36
29239;BME280;16267;48.194;11.546;2023-07-29T02:42:04;95638.63;;;18.91;86.08
29239;BME280;16267;48.194;11.546;2023-07-29T02:44:30;95647.22;;;18.89;86.21
29239;BME280;16267;48.194;11.546;2023-07-29T02:46:56;95643.47;;;18.87;86.03
29239;BME280;16267;48.194;11.546;2023-07-29T02:49:22;95650.59;;;18.84;85.95
29239;BME280;16267;48.194;11.546;2023-07-29T02:51:49;95646.38;;;18.83;86.07
29239;BME280;16267;48.194;11.546;2023-07-29T02:54:15;95634.94;;;18.79;85.55
29239;BME280;16267;48.194;11.546;2023-07-29T02:56:40;95640.06;;;18.77;86.23
29239;BME280;16267;48.194;11.546;2023-07-29T02:59:06;95643.72;;;18.74;86.65
29239;BME280;16267;48.194;11.546;2023-07-29T03:01:32;95635.97;;;18.72;86.38
29239;BME280;16267;48.194;11.546;2023-07-29T03:03:58;95639.91;;;18.71;86.18
29239;BME280;16267;48.194;11.546;2023-07-29T03:06:24;95630.72;;;18.69;86.46
29239;BME280;16267;48.194;11.546;2023-07-29T03:08:51;95635.09;;;18.66;86.46
29239;BME280;16267;48.194;11.546;2023-07-29T03:11:16;95632.09;;;18.64;86.94
29239;BME280;16267;48.194;11.546;2023-07-29T03:13:43;95632.28;;;18.61;87.46
29239;BME280;16267;48.194;11.546;2023-07-29T03:16:14;95625.78;;;18.58;87.80
29239;BME280;16267;48.194;11.546;2023-07-29T03:18:42;95633.94;;;18.58;87.92
29239;BME280;16267;48.194;11.546;2023-07-29T03:21:09;95630.94;;;18.56;87.59
29239;BME280;16267;48.194;11.546;2023-07-29T03:23:35;95629.44;;;18.55;87.67
29239;BME280;16267;48.194;11.546;2023-07-29T03:26:02;95630.66;;;18.54;88.33
29239;BME280;16267;48.194;11.546;2023-07-29T03:28:39;95635.78;;;18.52;88.84
29239;BME280;16267;48.194;11.546;2023-07-29T03:31:06;95627.63;;;18.52;89.71
29239;BME280;16267;48.194;11.546;2023-07-29T03:33:31;95611.78;;;18.50;89.41
29239;BME280;16267;48.194;11.546;2023-07-29T03:35:57;95606.34;;;18.50;89.35
29239;BME280;16267;48.194;11.546;2023-07-29T03:38:24;95616.47;;;18.50;88.69
29239;BME280;16267;48.194;11.546;2023-07-29T03:40:50;95626.13;;;18.51;89.09
29239;BME280;16267;48.194;11.546;2023-07-29T03:43:16;95627.34;;;18.50;89.63
29239;BME280;16267;48.194;11.546;2023-07-29T03:45:42;95628.84;;;18.51;89.92
29239;BME280;16267;48.194;11.546;2023-07-29T03:48:08;95634.00;;;18.49;90.17
29239;BME280;16267;48.194;11.546;2023-07-29T03:50:35;95640.94;;;18.50;90.95
29239;BME280;16267;48.194;11.546;2023-07-29T03:53:05;95640.94;;;18.50;91.38
29239;BME280;16267;48.194;11.546;2023-07-29T03:55:31;95637.47;;;18.49;91.60
29239;BME280;16267;48.194;11.546;2023-07-29T03:57:59;95640.19;;;18.49;91.32
29239;BME280;16267;48.194;11.546;2023-07-29T04:00:25;95635.50;;;18.50;91.55
29239;BME280;16267;48.194;11.546;2023-07-29T04:02:51;95627.34;;;18.50;91.85
29239;BME280;16267;48.194;11.546;2023-07-29T04:05:17;95632.78;;;18.50;91.72
29239;BME280;16267;48.194;11.546;2023-07-29T04:07:43;95619.19;;;18.50;91.41
29239;BME280;16267;48.194;11.546;2023-07-29T04:10:09;95616.94;;;18.48;91.26
29239;BME280;16267;48.194;11.546;2023-07-29T04:12:35;95614.97;;;18.49;91.66
29239;BME280;16267;48.194;11.546;2023-07-29T04:15:08;95610.28;;;18.49;91.34
29239;BME280;16267;48.194;11.546;2023-07-29T04:17:33;95604.38;;;18.51;91.31
29239;BME280;16267;48.194;11.546;2023-07-29T04:19:59;95598.19;;;18.50;91.44
29239;BME280;16267;48.194;11.546;2023-07-29T04:22:25;95599.72;;;18.52;91.41
29239;BME280;16267;48.194;11.546;2023-07-29T04:24:50;95599.72;;;18.52;91.09
29239;BME280;16267;48.194;11.546;2023-07-29T04:27:16;95598.19;;;18.50;91.48
29239;BME280;16267;48.194;11.546;2023-07-29T04:29:42;95587.31;;;18.50;91.53
29239;BME280;16267;48.194;11.546;2023-07-29T04:32:07;95589.28;;;18.50;91.43
29239;BME280;16267;48.194;11.546;2023-07-29T04:34:33;95581.88;;;18.50;91.98
29239;BME280;16267;48.194;11.546;2023-07-29T04:36:59;95593.50;;;18.51;91.76
29239;BME280;16267;48.194;11.546;2023-07-29T04:39:25;95593.50;;;18.51;91.74
29239;BME280;16267;48.194;11.546;2023-07-29T04:41:51;95594.28;;;18.52;91.34
29239;BME280;16267;48.194;11.546;2023-07-29T04:44:16;95585.34;;;18.51;91.31
29239;BME280;16267;48.194;11.546;2023-07-29T04:46:50;95595.03;;;18.52;91.15
29239;BME280;16267;48.194;11.546;2023-07-29T04:49:16;95601.50;;;18.55;92.11
29239;BME280;16267;48.194;11.546;2023-07-29T04:51:42;95599.06;;;18.57;92.36
29239;BME280;16267;48.194;11.546;2023-07-29T04:54:08;95589.72;;;18.58;92.77
29239;BME280;16267;48.194;11.546;2023-07-29T04:56:33;95581.84;;;18.60;93.03
29239;BME280;16267;48.194;11.546;2023-07-29T04:58:59;95585.13;;;18.64;93.71
29239;BME280;16267;48.194;11.546;2023-07-29T05:01:25;95589.66;;;18.67;93.71
29239;BME280;16267;48.194;11.546;2023-07-29T05:03:50;95592.97;;;18.71;94.52
29239;BME280;16267;48.194;11.546;2023-07-29T05:06:17;95582.69;;;18.75;95.53
29239;BME280;16267;48.194;11.546;2023-07-29T05:08:42;95581.31;;;18.80;95.95
29239;BME280;16267;48.194;11.546;2023-07-29T05:11:08;95581.13;;;18.83;97.50
29239;BME280;16267;48.194;11.546;2023-07-29T05:13:37;95580.94;;;18.87;97.32
29239;BME280;16267;48.194;11.546;2023-07-29T05:16:03;95576.81;;;18.91;98.16
29239;BME280;16267;48.194;11.546;2023-07-29T05:18:32;95574.41;;;18.93;97.43
29239;BME280;16267;48.194;11.546;2023-07-29T05:21:01;95564.56;;;18.96;96.66
29239;BME280;16267;48.194;11.546;2023-07-29T05:23:29;95565.88;;;19.01;95.16
29239;BME280;16267;48.194;11.546;2023-07-29T05:28:31;95565.06;;;19.09;95.92
29239;BME280;16267;48.194;11.546;2023-07-29T05:34:38;95564.34;;;19.24;98.52
29239;BME280;16267;48.194;11.546;2023-07-29T05:37:04;95572.13;;;19.31;99.07
29239;BME280;16267;48.194;11.546;2023-07-29T05:39:30;95575.31;;;19.29;98.20
29239;BME280;16267;48.194;11.546;2023-07-29T05:41:57;95575.59;;;19.31;97.55
29239;BME280;16267;48.194;11.546;2023-07-29T05:44:23;95581.81;;;19.32;96.91
29239;BME280;16267;48.194;11.546;2023-07-29T05:46:49;95585.56;;;19.34;96.80
29239;BME280;16267;48.194;11.546;2023-07-29T05:49:14;95583.09;;;19.36;96.44
29239;BME280;16267;48.194;11.546;2023-07-29T05:51:40;95581.13;;;19.37;95.89
29239;BME280;16267;48.194;11.546;2023-07-29T05:54:06;95583.38;;;19.38;95.82
29239;BME280;16267;48.194;11.546;2023-07-29T05:56:37;95584.88;;;19.39;96.09
29239;BME280;16267;48.194;11.546;2023-07-29T05:59:02;95588.38;;;19.40;97.13
29239;BME280;16267;48.194;11.546;2023-07-29T06:01:28;95601.22;;;19.39;96.55
29239;BME280;16267;48.194;11.546;2023-07-29T06:03:54;95634.06;;;19.36;94.50
29239;BME280;16267;48.194;11.546;2023-07-29T06:06:20;95610.78;;;19.35;94.17
29239;BME280;16267;48.194;11.546;2023-07-29T06:08:45;95563.00;;;19.34;94.61
29239;BME280;16267;48.194;11.546;2023-07-29T06:11:11;95567.16;;;19.29;98.04
29239;BME280;16267;48.194;11.546;2023-07-29T06:13:37;95572.31;;;19.27;97.02
29239;BME280;16267;48.194;11.546;2023-07-29T06:16:03;95577.28;;;19.29;97.14
29239;BME280;16267;48.194;11.546;2023-07-29T06:18:28;95574.56;;;19.29;96.70
29239;BME280;16267;48.194;11.546;2023-07-29T06:21:28;95575.31;;;19.29;96.94
29239;BME280;16267;48.194;11.546;2023-07-29T06:23:54;95576.63;;;19.34;97.56
29239;BME280;16267;48.194;11.546;2023-07-29T06:26:20;95582.66;;;19.38;97.54
29239;BME280;16267;48.194;11.546;2023-07-29T06:29:07;95579.28;;;19.43;96.29
29239;BME280;16267;48.194;11.546;2023-07-29T06:31:34;95597.38;;;19.46;97.15
29239;BME280;16267;48.194;11.546;2023-07-29T06:34:40;95596.91;;;19.48;98.16
29239;BME280;16267;48.194;11.546;2023-07-29T06:37:06;95606.31;;;19.47;99.79
29239;BME280;16267;48.194;11.546;2023-07-29T06:39:32;95600.66;;;19.50;98.33
29239;BME280;16267;48.194;11.546;2023-07-29T06:42:06;95607.44;;;19.55;98.64
29239;BME280;16267;48.194;11.546;2023-07-29T06:45:15;95622.63;;;19.61;97.71
29239;BME280;16267;48.194;11.546;2023-07-29T06:48:25;95623.88;;;19.60;98.09
29239;BME280;16267;48.194;11.546;2023-07-29T06:50:51;95658.81;;;19.62;98.66
29239;BME280;16267;48.194;11.546;2023-07-29T06:53:23;95677.56;;;19.60;98.38
29239;BME280;16267;48.194;11.546;2023-07-29T06:55:53;95694.84;;;19.57;98.77
29239;BME280;16267;48.194;11.546;2023-07-29T06:58:22;95706.53;;;19.48;99.34
29239;BME280;16267;48.194;11.546;2023-07-29T07:00:48;95702.50;;;19.44;100.00
29239;BME280;16267;48.194;11.546;2023-07-29T07:04:06;95680.03;;;19.34;100.00
29239;BME280;16267;48.194;11.546;2023-07-29T07:07:10;95661.16;;;19.30;100.00
29239;BME280;16267;48.194;11.546;2023-07-29T07:09:44;95657.69;;;19.30;100.00
29239;BME280;16267;48.194;11.546;2023-07-29T07:12:12;95653.75;;;19.31;100.00
29239;BME280;16267;48.194;11.546;2023-07-29T07:14:37;95650.28;;;19.30;100.00
29239;BME280;16267;48.194;11.546;2023-07-29T07:17:13;95660.41;;;19.30;100.00
29239;BME280;16267;48.194;11.546;2023-07-29T07:19:45;95663.44;;;19.32;99.80
29239;BME280;16267;48.194;11.546;2023-07-29T07:22:12;95669.63;;;19.32;99.83
29239;BME280;16267;48.194;11.546;2023-07-29T07:24:47;95660.53;;;19.35;99.28
29239;BME280;16267;48.194;11.546;2023-07-29T07:27:12;95651.41;;;19.38;100.00
29239;BME280;16267;48.194;11.546;2023-07-29T07:29:49;95651.41;;;19.38;100.00
29239;BME280;16267;48.194;11.546;2023-07-29T07:32:14;95637.38;;;19.40;100.00
29239;BME280;16267;48.194;11.546;2023-07-29T07:34:40;95630.41;;;19.39;100.00
29239;BME280;16267;48.194;11.546;2023-07-29T07:37:06;95618.31;;;19.40;100.00
29239;BME280;16267;48.194;11.546;2023-07-29T07:39:32;95631.44;;;19.42;100.00
29239;BME280;16267;48.194;11.546;2023-07-29T07:41:58;95613.88;;;19.43;100.00
29239;BME280;16267;48.194;11.546;2023-07-29T07:44:33;95606.00;;;19.45;100.00
29239;BME280;16267;48.194;11.546;2023-07-29T07:46:58;95603.38;;;19.50;100.00
29239;BME280;16267;48.194;11.546;2023-07-29T07:49:24;95595.06;;;19.54;100.00
29239;BME280;16267;48.194;11.546;2023-07-29T07:51:50;95586.22;;;19.59;100.00
29239;BME280;16267;48.194;11.546;2023-07-29T07:54:16;95582.84;;;19.64;100.00
29239;BME280;16267;48.194;11.546;2023-07-29T07:56:43;95582.69;;;19.68;100.00
29239;BME280;16267;48.194;11.546;2023-07-29T07:59:09;95593.19;;;19.75;100.00
29239;BME280;16267;48.194;11.546;2023-07-29T08:01:36;95600.41;;;19.78;100.00
29239;BME280;16267;48.194;11.546;2023-07-29T08:04:02;95599.47;;;19.81;100.00
29239;BME280;16267;48.194;11.546;2023-07-29T08:06:29;95593.56;;;19.82;100.00
29239;BME280;16267;48.194;11.546;2023-07-29T08:08:55;95600.34;;;19.87;100.00
29239;BME280;16267;48.194;11.546;2023-07-29T08:11:21;95600.91;;;19.91;100.00
29239;BME280;16267;48.194;11.546;2023-07-29T08:13:47;95594.22;;;19.92;100.00
29239;BME280;16267;48.194;11.546;2023-07-29T08:16:13;95594.31;;;19.98;100.00
29239;BME280;16267;48.194;11.546;2023-07-29T08:18:39;95590.91;;;20.03;100.00
29239;BME280;16267;48.194;11.546;2023-07-29T08:21:05;95599.38;;;20.05;100.00
29239;BME280;16267;48.194;11.546;2023-07-29T08:23:34;95596.00;;;20.10;100.00
29239;BME280;16267;48.194;11.546;2023-07-29T08:26:03;95599.53;;;20.16;100.00
29239;BME280;16267;48.194;11.546;2023-07-29T08:28:33;95594.47;;;20.24;100.00
29239;BME280;16267;48.194;11.546;2023-07-29T08:30:59;95605.16;;;20.27;100.00
29239;BME280;16267;48.194;11.546;2023-07-29T08:33:26;95602.72;;;20.30;100.00
29239;BME280;16267;48.194;11.546;2023-07-29T08:35:52;95602.81;;;20.35;100.00
29239;BME280;16267;48.194;11.546;2023-07-29T08:38:19;95603.34;;;20.39;100.00
29239;BME280;16267;48.194;11.546;2023-07-29T08:44:06;95591.59;;;20.48;100.00
29239;BME280;16267;48.194;11.546;2023-07-29T08:46:32;95596.38;;;20.53;100.00
29239;BME280;16267;48.194;11.546;2023-07-29T08:48:59;95603.88;;;20.58;100.00
29239;BME280;16267;48.194;11.546;2023-07-29T08:51:27;95620.06;;;20.62;100.00
29239;BME280;16267;48.194;11.546;2023-07-29T08:53:55;95608.94;;;20.65;100.00
29239;BME280;16267;48.194;11.546;2023-07-29T08:56:21;95613.44;;;20.68;100.00
29239;BME280;16267;48.194;11.546;2023-07-29T08:58:47;95610.78;;;20.74;100.00
29239;BME280;16267;48.194;11.546;2023-07-29T09:01:15;95608.34;;;20.76;100.00
29239;BME280;16267;48.194;11.546;2023-07-29T09:03:41;95610.66;;;20.83;100.00
29239;BME280;16267;48.194;11.546;2023-07-29T09:06:08;95609.63;;;20.81;100.00
29239;BME280;16267;48.194;11.546;2023-07-29T09:08:34;95605.00;;;20.87;100.00
29239;BME280;16267;48.194;11.546;2023-07-29T09:11:00;95612.78;;;20.94;100.00
29239;BME280;16267;48.194;11.546;2023-07-29T09:13:26;95611.63;;;21.01;100.00
29239;BME280;16267;48.194;11.546;2023-07-29T09:15:57;95598.81;;;21.07;100.00
29239;BME280;16267;48.194;11.546;2023-07-29T09:18:23;95601.78;;;21.09;100.00
29239;BME280;16267;48.194;11.546;2023-07-29T09:20:52;95601.88;;;21.14;100.00
29239;BME280;16267;48.194;11.546;2023-07-29T09:23:18;95593.03;;;21.25;100.00
29239;BME280;16267;48.194;11.546;2023-07-29T09:25:46;95604.38;;;21.38;100.00
29239;BME280;16267;48.194;11.546;2023-07-29T09:28:15;95602.56;;;21.35;98.58
29239;BME280;16267;48.194;11.546;2023-07-29T09:30:45;95605.22;;;21.50;100.00
29239;BME280;16267;48.194;11.546;2023-07-29T09:33:11;95605.34;;;21.61;100.00
29239;BME280;16267;48.194;11.546;2023-07-29T09:35:38;95606.63;;;21.66;100.00
29239;BME280;16267;48.194;11.546;2023-07-29T09:38:07;95605.72;;;21.75;99.25
29239;BME280;16267;48.194;11.546;2023-07-29T09:40:38;95603.56;;;21.85;99.21
29239;BME280;16267;48.194;11.546;2023-07-29T09:43:05;95598.19;;;21.96;100.00
29239;BME280;16267;48.194;11.546;2023-07-29T09:45:34;95597.53;;;22.07;100.00
29239;BME280;16267;48.194;11.546;2023-07-29T09:48:01;95596.09;;;22.17;97.77
29239;BME280;16267;48.194;11.546;2023-07-29T09:50:28;95600.44;;;22.23;95.31
29239;BME280;16267;48.194;11.546;2023-07-29T09:52:55;95597.75;;;22.35;91.91
29239;BME280;16267;48.194;11.546;2023-07-29T09:55:25;95598.56;;;22.46;95.00
29239;BME280;16267;48.194;11.546;2023-07-29T09:58:01;95598.88;;;22.54;98.14
29239;BME280;16267;48.194;11.546;2023-07-29T10:00:31;95595.19;;;22.63;92.32
29239;BME280;16267;48.194;11.546;2023-07-29T10:02:58;95589.28;;;22.70;93.69
29239;BME280;16267;48.194;11.546;2023-07-29T10:05:27;95591.25;;;22.75;93.38
29239;BME280;16267;48.194;11.546;2023-07-29T10:07:54;95581.09;;;22.76;86.92
29239;BME280;16267;48.194;11.546;2023-07-29T10:10:21;95566.94;;;22.88;90.45
29239;BME280;16267;48.194;11.546;2023-07-29T10:12:47;95580.16;;;22.90;84.01
29239;BME280;16267;48.194;11.546;2023-07-29T10:15:13;95573.75;;;22.99;86.67
29239;BME280;16267;48.194;11.546;2023-07-29T10:17:42;95573.53;;;23.08;86.69
29239;BME280;16267;48.194;11.546;2023-07-29T10:20:10;95565.56;;;23.10;80.74
29239;BME280;16267;48.194;11.546;2023-07-29T10:22:40;95560.63;;;23.20;81.39
29239;BME280;16267;48.194;11.546;2023-07-29T10:25:22;95563.41;;;23.31;82.36
29239;BME280;16267;48.194;11.546;2023-07-29T10:28:00;95547.97;;;23.39;78.43
29239;BME280;16267;48.194;11.546;2023-07-29T10:30:31;95537.78;;;23.51;80.82
29239;BME280;16267;48.194;11.546;2023-07-29T10:33:02;95545.50;;;23.58;77.68
29239;BME280;16267;48.194;11.546;2023-07-29T10:35:30;95542.53;;;23.67;78.72
29239;BME280;16267;48.194;11.546;2023-07-29T10:37:57;95545.78;;;23.77;76.43
29239;BME280;16267;48.194;11.546;2023-07-29T10:40:24;95547.03;;;23.87;76.79
29239;BME280;16267;48.194;11.546;2023-07-29T10:43:02;95533.31;;;23.98;72.07
29239;BME280;16267;48.194;11.546;2023-07-29T10:45:41;95531.31;;;24.10;73.47
29239;BME280;16267;48.194;11.546;2023-07-29T10:51:27;95535.28;;;24.15;68.28
29239;BME280;16267;48.194;11.546;2023-07-29T10:54:02;95529.56;;;24.07;68.55
29239;BME280;16267;48.194;11.546;2023-07-29T10:56:36;95531.31;;;24.10;69.92
29239;BME280;16267;48.194;11.546;2023-07-29T11:01:40;95549.25;;;24.11;70.81
29239;BME280;16267;48.194;11.546;2023-07-29T11:07:23;95570.41;;;24.16;73.36
29239;BME280;16267;48.194;11.546;2023-07-29T11:09:55;95594.09;;;23.86;62.55
29239;BME280;16267;48.194;11.546;2023-07-29T11:12:40;95585.09;;;23.57;59.29
29239;BME280;16267;48.194;11.546;2023-07-29T11:20:13;95595.03;;;23.43;63.87
29239;BME280;16267;48.194;11.546;2023-07-29T11:22:40;95588.28;;;23.38;64.02
29239;BME280;16267;48.194;11.546;2023-07-29T11:25:09;95588.78;;;23.31;64.61
29239;BME280;16267;48.194;11.546;2023-07-29T11:27:38;95575.84;;;23.37;65.34
29239;BME280;16267;48.194;11.546;2023-07-29T11:30:10;95585.28;;;23.25;64.73
29239;BME280;16267;48.194;11.546;2023-07-29T11:32:37;95576.28;;;23.13;64.43
29239;BME280;16267;48.194;11.546;2023-07-29T11:35:13;95570.59;;;23.28;65.91
29239;BME280;16267;48.194;11.546;2023-07-29T11:37:43;95572.63;;;23.39;66.07
29239;BME280;16267;48.194;11.546;2023-07-29T11:40:09;95567.59;;;23.26;64.03
29239;BME280;16267;48.194;11.546;2023-07-29T11:42:38;95568.38;;;23.32;64.28
29239;BME280;16267;48.194;11.546;2023-07-29T11:45:05;95554.22;;;23.45;64.15
29239;BME280;16267;48.194;11.546;2023-07-29T11:47:35;95563.19;;;23.63;65.05
29239;BME280;16267;48.194;11.546;2023-07-29T11:50:09;95565.69;;;23.83;67.43
29239;BME280;16267;48.194;11.546;2023-07-29T11:52:36;95566.47;;;23.89;64.44
29239;BME280;16267;48.194;11.546;2023-07-29T11:55:04;95559.00;;;23.90;63.00
29239;BME280;16267;48.194;11.546;2023-07-29T11:57:34;95548.50;;;23.99;63.10
29239;BME280;16267;48.194;11.546;2023-07-29T12:00:06;95542.78;;;24.03;62.92
29239;BME280;16267;48.194;11.546;2023-07-29T12:02:34;95532.84;;;24.00;61.59
29239;BME280;16267;48.194;11.546;2023-07-29T12:05:02;95538.28;;;24.17;63.60
29239;BME280;16267;48.194;11.546;2023-07-29T12:07:29;95541.22;;;24.30;62.76
29239;BME280;16267;48.194;11.546;2023-07-29T12:09:55;95537.22;;;24.42;63.17
29239;BME280;16267;48.194;11.546;2023-07-29T12:12:23;95537.50;;;24.50;60.30
29239;BME280;16267;48.194;11.546;2023-07-29T12:14:49;95534.19;;;24.63;62.47
29239;BME280;16267;48.194;11.546;2023-07-29T12:17:15;95536.91;;;24.68;61.08
29239;BME280;16267;48.194;11.546;2023-07-29T12:19:42;95533.91;;;24.78;62.79
29239;BME280;16267;48.194;11.546;2023-07-29T12:22:10;95524.38;;;24.84;61.90
29239;BME280;16267;48.194;11.546;2023-07-29T12:24:39;95530.34;;;24.88;62.79
29239;BME280;16267;48.194;11.546;2023-07-29T12:27:11;95531.13;;;24.89;62.49
29239;BME280;16267;48.194;11.546;2023-07-29T12:29:44;95529.59;;;24.88;63.11
29239;BME280;16267;48.194;11.546;2023-07-29T12:32:11;95533.84;;;24.89;63.41
29239;BME280;16267;48.194;11.546;2023-07-29T12:34:38;95535.38;;;24.84;63.35
29239;BME280;16267;48.194;11.546;2023-07-29T12:37:06;95530.38;;;24.83;63.52
29239;BME280;16267;48.194;11.546;2023-07-29T12:39:34;95531.16;;;24.78;64.76
29239;BME280;16267;48.194;11.546;2023-07-29T12:42:02;95526.47;;;24.67;66.15
29239;BME280;16267;48.194;11.546;2023-07-29T12:44:35;95541.94;;;24.59;69.29
29239;BME280;16267;48.194;11.546;2023-07-29T12:47:05;95543.97;;;24.53;70.01
29239;BME280;16267;48.194;11.546;2023-07-29T12:49:32;95596.06;;;24.36;73.61
29239;BME280;16267;48.194;11.546;2023-07-29T12:52:01;95535.06;;;23.90;76.67
29239;BME280;16267;48.194;11.546;2023-07-29T12:54:27;95525.53;;;23.18;76.40
29239;BME280;16267;48.194;11.546;2023-07-29T12:56:52;95538.56;;;22.80;72.27
29239;BME280;16267;48.194;11.546;2023-07-29T12:59:18;95531.44;;;23.00;73.64
29239;BME280;16267;48.194;11.546;2023-07-29T13:01:44;95549.59;;;23.03;74.92
29239;BME280;16267;48.194;11.546;2023-07-29T13:04:10;95546.63;;;23.01;75.65
29239;BME280;16267;48.194;11.546;2023-07-29T13:06:36;95552.13;;;23.01;76.40
29239;BME280;16267;48.194;11.546;2023-07-29T13:09:02;95575.84;;;22.72;78.61
29239;BME280;16267;48.194;11.546;2023-07-29T13:11:29;95575.84;;;22.78;78.47
29239;BME280;16267;48.194;11.546;2023-07-29T13:13:54;95582.31;;;22.75;79.19
29239;BME280;16267;48.194;11.546;2023-07-29T13:16:20;95571.84;;;22.67;80.48
29239;BME280;16267;48.194;11.546;2023-07-29T13:18:46;95566.84;;;22.66;80.69